sensor_id;sensor_type;location;lat;lon;timestamp;P1;durP1;ratioP1;P2;durP2;ratioP2
64842;SDS011;51310;52.198;5.422;2023-03-01T00:01:01;14.20;;;8.63;;
64842;SDS011;51310;52.198;5.422;2023-03-01T00:03:33;14.80;;;8.68;;
64842;SDS011;51310;52.198;5.422;2023-03-01T00:06:00;17.33;;;9.87;;
64842;SDS011;51310;52.198;5.422;2023-03-01T00:08:27;14.18;;;9.50;;
64842;SDS011;51310;52.198;5.422;2023-03-01T00:10:59;14.50;;;10.00;;
64842;SDS011;51310;52.198;5.422;2023-03-01T00:13:37;18.45;;;10.40;;
64842;SDS011;51310;52.198;5.422;2023-03-01T00:16:07;16.60;;;10.30;;
64842;SDS011;51310;52.198;5.422;2023-03-01T00:19:03;17.03;;;10.73;;
64842;SDS011;51310;52.198;5.422;2023-03-01T00:21:30;17.30;;;10.88;;
64842;SDS011;51310;52.198;5.422;2023-03-01T00:23:56;20.55;;;11.40;;
64842;SDS011;51310;52.198;5.422;2023-03-01T00:26:23;23.40;;;11.90;;
64842;SDS011;51310;52.198;5.422;2023-03-01T00:28:50;23.65;;;12.07;;
64842;SDS011;51310;52.198;5.422;2023-03-01T00:31:18;23.55;;;11.73;;
64842;SDS011;51310;52.198;5.422;2023-03-01T00:33:47;29.73;;;13.40;;
64842;SDS011;51310;52.198;5.422;2023-03-01T00:36:16;20.63;;;11.52;;
64842;SDS011;51310;52.198;5.422;2023-03-01T00:38:43;21.52;;;11.00;;
64842;SDS011;51310;52.198;5.422;2023-03-01T00:41:12;18.65;;;11.45;;
64842;SDS011;51310;52.198;5.422;2023-03-01T00:43:40;22.98;;;12.23;;
64842;SDS011;51310;52.198;5.422;2023-03-01T00:46:08;17.45;;;11.80;;
64842;SDS011;51310;52.198;5.422;2023-03-01T00:48:39;20.40;;;11.57;;
64842;SDS011;51310;52.198;5.422;2023-03-01T00:53:57;18.55;;;11.20;;
64842;SDS011;51310;52.198;5.422;2023-03-01T00:56:26;20.90;;;11.98;;
64842;SDS011;51310;52.198;5.422;2023-03-01T00:58:52;19.05;;;12.27;;
64842;SDS011;51310;52.198;5.422;2023-03-01T01:01:22;19.63;;;12.23;;
64842;SDS011;51310;52.198;5.422;2023-03-01T01:03:56;22.73;;;12.23;;
64842;SDS011;51310;52.198;5.422;2023-03-01T01:06:31;19.35;;;12.07;;
64842;SDS011;51310;52.198;5.422;2023-03-01T01:09:09;19.50;;;11.77;;
64842;SDS011;51310;52.198;5.422;2023-03-01T01:11:42;23.65;;;12.45;;
64842;SDS011;51310;52.198;5.422;2023-03-01T01:14:10;21.00;;;13.30;;
64842;SDS011;51310;52.198;5.422;2023-03-01T01:16:36;18.15;;;12.38;;
64842;SDS011;51310;52.198;5.422;2023-03-01T01:19:02;24.00;;;12.57;;
64842;SDS011;51310;52.198;5.422;2023-03-01T01:21:28;19.70;;;12.33;;
64842;SDS011;51310;52.198;5.422;2023-03-01T01:23:54;20.77;;;13.38;;
64842;SDS011;51310;52.198;5.422;2023-03-01T01:26:24;22.08;;;13.15;;
64842;SDS011;51310;52.198;5.422;2023-03-01T01:28:55;21.60;;;13.13;;
64842;SDS011;51310;52.198;5.422;2023-03-01T01:31:22;20.67;;;13.32;;
64842;SDS011;51310;52.198;5.422;2023-03-01T01:33:49;22.45;;;13.93;;
64842;SDS011;51310;52.198;5.422;2023-03-01T01:36:15;23.77;;;14.00;;
64842;SDS011;51310;52.198;5.422;2023-03-01T01:38:42;23.48;;;13.65;;
64842;SDS011;51310;52.198;5.422;2023-03-01T01:41:08;22.75;;;13.70;;
64842;SDS011;51310;52.198;5.422;2023-03-01T01:43:43;24.75;;;14.38;;
64842;SDS011;51310;52.198;5.422;2023-03-01T01:51:38;26.17;;;15.50;;
64842;SDS011;51310;52.198;5.422;2023-03-01T01:54:10;23.55;;;15.40;;
64842;SDS011;51310;52.198;5.422;2023-03-01T01:56:53;25.83;;;15.40;;
64842;SDS011;51310;52.198;5.422;2023-03-01T01:59:25;25.17;;;14.73;;
64842;SDS011;51310;52.198;5.422;2023-03-01T02:01:53;23.52;;;14.82;;
64842;SDS011;51310;52.198;5.422;2023-03-01T02:04:20;25.20;;;15.27;;
64842;SDS011;51310;52.198;5.422;2023-03-01T02:06:48;22.77;;;15.23;;
64842;SDS011;51310;52.198;5.422;2023-03-01T02:09:23;25.73;;;16.00;;
64842;SDS011;51310;52.198;5.422;2023-03-01T02:11:50;24.95;;;15.75;;
64842;SDS011;51310;52.198;5.422;2023-03-01T02:14:17;25.65;;;15.93;;
64842;SDS011;51310;52.198;5.422;2023-03-01T02:16:43;26.90;;;16.20;;
64842;SDS011;51310;52.198;5.422;2023-03-01T02:19:10;25.48;;;16.42;;
64842;SDS011;51310;52.198;5.422;2023-03-01T02:21:55;33.17;;;16.67;;
64842;SDS011;51310;52.198;5.422;2023-03-01T02:27:40;31.55;;;17.58;;
64842;SDS011;51310;52.198;5.422;2023-03-01T02:30:32;25.70;;;16.90;;
64842;SDS011;51310;52.198;5.422;2023-03-01T02:32:59;26.77;;;16.63;;
64842;SDS011;51310;52.198;5.422;2023-03-01T02:35:36;24.75;;;16.25;;
64842;SDS011;51310;52.198;5.422;2023-03-01T02:38:06;30.00;;;17.52;;
64842;SDS011;51310;52.198;5.422;2023-03-01T02:40:34;29.85;;;16.98;;
64842;SDS011;51310;52.198;5.422;2023-03-01T02:43:04;25.58;;;16.20;;
64842;SDS011;51310;52.198;5.422;2023-03-01T02:45:36;29.53;;;18.10;;
64842;SDS011;51310;52.198;5.422;2023-03-01T02:48:02;30.53;;;17.30;;
64842;SDS011;51310;52.198;5.422;2023-03-01T02:55:50;25.03;;;16.67;;
64842;SDS011;51310;52.198;5.422;2023-03-01T02:58:16;26.27;;;16.87;;
64842;SDS011;51310;52.198;5.422;2023-03-01T03:00:42;26.97;;;16.80;;
64842;SDS011;51310;52.198;5.422;2023-03-01T03:03:15;33.27;;;17.60;;
64842;SDS011;51310;52.198;5.422;2023-03-01T03:05:44;29.33;;;18.08;;
64842;SDS011;51310;52.198;5.422;2023-03-01T03:08:10;25.83;;;17.33;;
64842;SDS011;51310;52.198;5.422;2023-03-01T03:10:37;29.38;;;17.13;;
64842;SDS011;51310;52.198;5.422;2023-03-01T03:13:07;26.45;;;16.17;;
64842;SDS011;51310;52.198;5.422;2023-03-01T03:15:39;28.08;;;16.80;;
64842;SDS011;51310;52.198;5.422;2023-03-01T03:18:08;31.47;;;17.57;;
64842;SDS011;51310;52.198;5.422;2023-03-01T03:20:38;33.83;;;19.50;;
64842;SDS011;51310;52.198;5.422;2023-03-01T03:23:06;31.80;;;17.65;;
64842;SDS011;51310;52.198;5.422;2023-03-01T03:25:32;29.80;;;17.70;;
64842;SDS011;51310;52.198;5.422;2023-03-01T03:27:57;27.50;;;18.10;;
64842;SDS011;51310;52.198;5.422;2023-03-01T03:30:24;25.70;;;17.38;;
64842;SDS011;51310;52.198;5.422;2023-03-01T03:32:53;31.48;;;17.40;;
64842;SDS011;51310;52.198;5.422;2023-03-01T03:35:21;25.17;;;16.23;;
64842;SDS011;51310;52.198;5.422;2023-03-01T03:37:57;28.52;;;16.20;;
64842;SDS011;51310;52.198;5.422;2023-03-01T03:40:35;33.05;;;18.00;;
64842;SDS011;51310;52.198;5.422;2023-03-01T03:43:05;29.35;;;18.40;;
64842;SDS011;51310;52.198;5.422;2023-03-01T03:45:49;34.28;;;19.35;;
64842;SDS011;51310;52.198;5.422;2023-03-01T03:48:16;34.05;;;20.00;;
64842;SDS011;51310;52.198;5.422;2023-03-01T03:50:47;31.73;;;19.27;;
64842;SDS011;51310;52.198;5.422;2023-03-01T03:53:21;31.85;;;17.73;;
64842;SDS011;51310;52.198;5.422;2023-03-01T03:55:50;29.13;;;17.77;;
64842;SDS011;51310;52.198;5.422;2023-03-01T03:58:17;26.15;;;17.05;;
64842;SDS011;51310;52.198;5.422;2023-03-01T04:00:44;25.98;;;17.52;;
64842;SDS011;51310;52.198;5.422;2023-03-01T04:03:13;27.48;;;16.88;;
64842;SDS011;51310;52.198;5.422;2023-03-01T04:05:41;28.25;;;16.73;;
64842;SDS011;51310;52.198;5.422;2023-03-01T04:08:08;25.80;;;15.75;;
64842;SDS011;51310;52.198;5.422;2023-03-01T04:10:38;25.55;;;15.52;;
64842;SDS011;51310;52.198;5.422;2023-03-01T04:13:17;29.52;;;17.00;;
64842;SDS011;51310;52.198;5.422;2023-03-01T04:15:47;26.52;;;16.80;;
64842;SDS011;51310;52.198;5.422;2023-03-01T04:18:16;28.35;;;16.80;;
64842;SDS011;51310;52.198;5.422;2023-03-01T04:20:44;25.20;;;16.25;;
64842;SDS011;51310;52.198;5.422;2023-03-01T04:23:15;24.03;;;15.10;;
64842;SDS011;51310;52.198;5.422;2023-03-01T04:25:52;26.73;;;16.38;;
64842;SDS011;51310;52.198;5.422;2023-03-01T04:28:26;27.02;;;16.63;;
64842;SDS011;51310;52.198;5.422;2023-03-01T04:31:05;26.20;;;16.67;;
64842;SDS011;51310;52.198;5.422;2023-03-01T04:36:09;30.13;;;17.27;;
64842;SDS011;51310;52.198;5.422;2023-03-01T04:38:37;31.23;;;17.92;;
64842;SDS011;51310;52.198;5.422;2023-03-01T04:41:05;30.58;;;18.50;;
64842;SDS011;51310;52.198;5.422;2023-03-01T04:43:33;37.03;;;20.05;;
64842;SDS011;51310;52.198;5.422;2023-03-01T04:46:03;34.28;;;19.63;;
64842;SDS011;51310;52.198;5.422;2023-03-01T04:48:36;30.10;;;18.38;;
64842;SDS011;51310;52.198;5.422;2023-03-01T04:51:03;37.10;;;21.03;;
64842;SDS011;51310;52.198;5.422;2023-03-01T04:53:31;31.42;;;18.20;;
64842;SDS011;51310;52.198;5.422;2023-03-01T04:55:57;31.35;;;19.08;;
64842;SDS011;51310;52.198;5.422;2023-03-01T04:58:24;32.05;;;18.88;;
64842;SDS011;51310;52.198;5.422;2023-03-01T05:00:52;31.48;;;19.08;;
64842;SDS011;51310;52.198;5.422;2023-03-01T05:03:18;35.90;;;18.73;;
64842;SDS011;51310;52.198;5.422;2023-03-01T05:05:46;30.33;;;18.33;;
64842;SDS011;51310;52.198;5.422;2023-03-01T05:08:14;28.35;;;17.42;;
64842;SDS011;51310;52.198;5.422;2023-03-01T05:10:49;30.58;;;17.60;;
64842;SDS011;51310;52.198;5.422;2023-03-01T05:13:16;29.73;;;18.60;;
64842;SDS011;51310;52.198;5.422;2023-03-01T05:15:56;32.28;;;17.50;;
64842;SDS011;51310;52.198;5.422;2023-03-01T05:18:25;31.67;;;18.85;;
64842;SDS011;51310;52.198;5.422;2023-03-01T05:20:53;31.05;;;18.05;;
64842;SDS011;51310;52.198;5.422;2023-03-01T05:23:21;31.33;;;19.30;;
64842;SDS011;51310;52.198;5.422;2023-03-01T05:25:48;30.27;;;18.17;;
64842;SDS011;51310;52.198;5.422;2023-03-01T05:28:15;29.17;;;17.53;;
64842;SDS011;51310;52.198;5.422;2023-03-01T05:30:41;29.10;;;18.33;;
64842;SDS011;51310;52.198;5.422;2023-03-01T05:33:07;29.85;;;17.77;;
64842;SDS011;51310;52.198;5.422;2023-03-01T05:35:38;26.33;;;16.67;;
64842;SDS011;51310;52.198;5.422;2023-03-01T05:38:06;30.20;;;18.20;;
64842;SDS011;51310;52.198;5.422;2023-03-01T05:40:33;26.50;;;16.88;;
64842;SDS011;51310;52.198;5.422;2023-03-01T05:42:59;28.37;;;16.80;;
64842;SDS011;51310;52.198;5.422;2023-03-01T05:45:26;29.10;;;17.52;;
64842;SDS011;51310;52.198;5.422;2023-03-01T05:47:53;30.08;;;16.88;;
64842;SDS011;51310;52.198;5.422;2023-03-01T05:50:20;34.17;;;18.43;;
64842;SDS011;51310;52.198;5.422;2023-03-01T05:55:39;26.40;;;16.05;;
64842;SDS011;51310;52.198;5.422;2023-03-01T05:58:06;31.48;;;16.90;;
64842;SDS011;51310;52.198;5.422;2023-03-01T06:00:36;30.20;;;17.20;;
64842;SDS011;51310;52.198;5.422;2023-03-01T06:03:02;31.27;;;17.98;;
64842;SDS011;51310;52.198;5.422;2023-03-01T06:05:28;30.98;;;18.30;;
64842;SDS011;51310;52.198;5.422;2023-03-01T06:07:57;33.63;;;19.38;;
64842;SDS011;51310;52.198;5.422;2023-03-01T06:10:25;33.78;;;19.23;;
64842;SDS011;51310;52.198;5.422;2023-03-01T06:12:51;30.67;;;18.58;;
64842;SDS011;51310;52.198;5.422;2023-03-01T06:15:17;34.33;;;19.08;;
64842;SDS011;51310;52.198;5.422;2023-03-01T06:17:44;50.13;;;19.38;;
64842;SDS011;51310;52.198;5.422;2023-03-01T06:20:15;56.13;;;20.27;;
64842;SDS011;51310;52.198;5.422;2023-03-01T06:22:44;40.50;;;21.47;;
64842;SDS011;51310;52.198;5.422;2023-03-01T06:25:12;37.28;;;19.63;;
64842;SDS011;51310;52.198;5.422;2023-03-01T06:27:40;32.40;;;18.87;;
64842;SDS011;51310;52.198;5.422;2023-03-01T06:30:07;35.67;;;19.33;;
64842;SDS011;51310;52.198;5.422;2023-03-01T06:32:36;37.20;;;18.40;;
64842;SDS011;51310;52.198;5.422;2023-03-01T06:35:06;34.30;;;18.77;;
64842;SDS011;51310;52.198;5.422;2023-03-01T06:37:33;30.05;;;17.70;;
64842;SDS011;51310;52.198;5.422;2023-03-01T06:40:00;26.70;;;16.25;;
64842;SDS011;51310;52.198;5.422;2023-03-01T06:42:33;31.83;;;16.92;;
64842;SDS011;51310;52.198;5.422;2023-03-01T06:45:00;26.45;;;15.82;;
64842;SDS011;51310;52.198;5.422;2023-03-01T06:47:26;29.83;;;15.93;;
64842;SDS011;51310;52.198;5.422;2023-03-01T06:49:52;27.13;;;17.37;;
64842;SDS011;51310;52.198;5.422;2023-03-01T06:52:18;28.97;;;18.40;;
64842;SDS011;51310;52.198;5.422;2023-03-01T06:54:43;31.90;;;17.97;;
64842;SDS011;51310;52.198;5.422;2023-03-01T06:57:09;28.83;;;17.80;;
64842;SDS011;51310;52.198;5.422;2023-03-01T06:59:35;32.67;;;17.93;;
64842;SDS011;51310;52.198;5.422;2023-03-01T07:02:00;31.30;;;17.83;;
64842;SDS011;51310;52.198;5.422;2023-03-01T07:04:26;30.93;;;18.53;;
64842;SDS011;51310;52.198;5.422;2023-03-01T07:06:53;31.20;;;17.88;;
64842;SDS011;51310;52.198;5.422;2023-03-01T07:09:20;28.43;;;17.27;;
64842;SDS011;51310;52.198;5.422;2023-03-01T07:11:48;30.77;;;18.15;;
64842;SDS011;51310;52.198;5.422;2023-03-01T07:14:14;31.77;;;17.47;;
64842;SDS011;51310;52.198;5.422;2023-03-01T07:16:40;29.27;;;16.10;;
64842;SDS011;51310;52.198;5.422;2023-03-01T07:19:06;32.33;;;19.52;;
64842;SDS011;51310;52.198;5.422;2023-03-01T07:21:32;33.38;;;18.55;;
64842;SDS011;51310;52.198;5.422;2023-03-01T07:23:57;31.70;;;19.17;;
64842;SDS011;51310;52.198;5.422;2023-03-01T07:26:23;36.67;;;20.05;;
64842;SDS011;51310;52.198;5.422;2023-03-01T07:28:49;37.72;;;20.27;;
64842;SDS011;51310;52.198;5.422;2023-03-01T07:31:14;40.33;;;22.30;;
64842;SDS011;51310;52.198;5.422;2023-03-01T07:33:40;41.80;;;21.90;;
64842;SDS011;51310;52.198;5.422;2023-03-01T07:36:06;40.78;;;22.52;;
64842;SDS011;51310;52.198;5.422;2023-03-01T07:38:32;42.50;;;23.63;;
64842;SDS011;51310;52.198;5.422;2023-03-01T07:40:59;42.25;;;22.48;;
64842;SDS011;51310;52.198;5.422;2023-03-01T07:43:28;39.63;;;23.15;;
64842;SDS011;51310;52.198;5.422;2023-03-01T07:45:57;45.72;;;23.75;;
64842;SDS011;51310;52.198;5.422;2023-03-01T07:48:25;43.80;;;24.00;;
64842;SDS011;51310;52.198;5.422;2023-03-01T07:50:51;40.28;;;22.60;;
64842;SDS011;51310;52.198;5.422;2023-03-01T07:53:16;48.00;;;25.55;;
64842;SDS011;51310;52.198;5.422;2023-03-01T07:55:42;43.83;;;24.52;;
64842;SDS011;51310;52.198;5.422;2023-03-01T07:58:08;42.75;;;22.05;;
64842;SDS011;51310;52.198;5.422;2023-03-01T08:00:34;41.75;;;23.30;;
64842;SDS011;51310;52.198;5.422;2023-03-01T08:03:00;48.00;;;25.00;;
64842;SDS011;51310;52.198;5.422;2023-03-01T08:05:26;45.70;;;24.13;;
64842;SDS011;51310;52.198;5.422;2023-03-01T08:07:53;41.63;;;22.73;;
64842;SDS011;51310;52.198;5.422;2023-03-01T08:10:19;42.63;;;22.60;;
64842;SDS011;51310;52.198;5.422;2023-03-01T08:12:45;43.07;;;22.80;;
64842;SDS011;51310;52.198;5.422;2023-03-01T08:15:11;36.17;;;21.00;;
64842;SDS011;51310;52.198;5.422;2023-03-01T08:17:37;37.30;;;21.55;;
64842;SDS011;51310;52.198;5.422;2023-03-01T08:20:03;38.00;;;20.05;;
64842;SDS011;51310;52.198;5.422;2023-03-01T08:22:31;33.58;;;20.00;;
64842;SDS011;51310;52.198;5.422;2023-03-01T08:24:57;36.57;;;21.03;;
64842;SDS011;51310;52.198;5.422;2023-03-01T08:27:23;34.77;;;21.00;;
64842;SDS011;51310;52.198;5.422;2023-03-01T08:29:48;36.27;;;21.00;;
64842;SDS011;51310;52.198;5.422;2023-03-01T08:32:14;34.23;;;19.63;;
64842;SDS011;51310;52.198;5.422;2023-03-01T08:34:40;31.10;;;18.98;;
64842;SDS011;51310;52.198;5.422;2023-03-01T08:37:06;29.77;;;18.60;;
64842;SDS011;51310;52.198;5.422;2023-03-01T08:39:32;32.20;;;17.40;;
64842;SDS011;51310;52.198;5.422;2023-03-01T08:41:57;35.90;;;18.70;;
64842;SDS011;51310;52.198;5.422;2023-03-01T08:44:23;31.20;;;17.60;;
64842;SDS011;51310;52.198;5.422;2023-03-01T08:46:49;31.38;;;16.45;;
64842;SDS011;51310;52.198;5.422;2023-03-01T08:49:17;30.77;;;16.52;;
64842;SDS011;51310;52.198;5.422;2023-03-01T08:51:45;27.45;;;15.57;;
64842;SDS011;51310;52.198;5.422;2023-03-01T08:54:14;26.17;;;15.10;;
64842;SDS011;51310;52.198;5.422;2023-03-01T08:56:46;24.33;;;14.95;;
64842;SDS011;51310;52.198;5.422;2023-03-01T08:59:13;21.15;;;13.73;;
64842;SDS011;51310;52.198;5.422;2023-03-01T09:01:41;20.70;;;11.45;;
64842;SDS011;51310;52.198;5.422;2023-03-01T09:04:12;20.23;;;11.20;;
64842;SDS011;51310;52.198;5.422;2023-03-01T09:06:41;17.83;;;9.35;;
64842;SDS011;51310;52.198;5.422;2023-03-01T09:09:07;17.33;;;8.85;;
64842;SDS011;51310;52.198;5.422;2023-03-01T09:11:40;20.83;;;9.65;;
64842;SDS011;51310;52.198;5.422;2023-03-01T09:14:07;14.10;;;8.40;;
64842;SDS011;51310;52.198;5.422;2023-03-01T09:16:33;13.63;;;8.07;;
64842;SDS011;51310;52.198;5.422;2023-03-01T09:19:01;15.65;;;8.70;;
64842;SDS011;51310;52.198;5.422;2023-03-01T09:21:28;12.90;;;8.13;;
64842;SDS011;51310;52.198;5.422;2023-03-01T09:23:55;12.68;;;7.60;;
64842;SDS011;51310;52.198;5.422;2023-03-01T09:26:22;12.83;;;7.20;;
64842;SDS011;51310;52.198;5.422;2023-03-01T09:28:50;13.35;;;7.45;;
64842;SDS011;51310;52.198;5.422;2023-03-01T09:31:19;12.30;;;6.45;;
64842;SDS011;51310;52.198;5.422;2023-03-01T09:33:47;13.13;;;6.15;;
64842;SDS011;51310;52.198;5.422;2023-03-01T09:36:16;12.10;;;6.03;;
64842;SDS011;51310;52.198;5.422;2023-03-01T09:38:46;9.43;;;5.55;;
64842;SDS011;51310;52.198;5.422;2023-03-01T09:43:57;16.48;;;6.93;;
64842;SDS011;51310;52.198;5.422;2023-03-01T09:46:37;11.90;;;6.25;;
64842;SDS011;51310;52.198;5.422;2023-03-01T09:49:18;10.55;;;6.18;;
64842;SDS011;51310;52.198;5.422;2023-03-01T09:54:41;9.60;;;5.68;;
64842;SDS011;51310;52.198;5.422;2023-03-01T09:57:11;9.63;;;5.35;;
64842;SDS011;51310;52.198;5.422;2023-03-01T10:09:02;17.70;;;9.07;;
64842;SDS011;51310;52.198;5.422;2023-03-01T10:11:39;19.23;;;8.85;;
64842;SDS011;51310;52.198;5.422;2023-03-01T10:19:48;9.65;;;5.43;;
64842;SDS011;51310;52.198;5.422;2023-03-01T10:24:52;5.80;;;3.83;;
64842;SDS011;51310;52.198;5.422;2023-03-01T10:27:26;6.88;;;3.70;;
64842;SDS011;51310;52.198;5.422;2023-03-01T10:30:22;7.57;;;3.47;;
64842;SDS011;51310;52.198;5.422;2023-03-01T10:33:03;10.48;;;3.60;;
64842;SDS011;51310;52.198;5.422;2023-03-01T10:35:45;6.93;;;3.75;;
64842;SDS011;51310;52.198;5.422;2023-03-01T10:38:12;6.32;;;3.92;;
64842;SDS011;51310;52.198;5.422;2023-03-01T10:43:24;6.78;;;3.25;;
64842;SDS011;51310;52.198;5.422;2023-03-01T10:45:56;5.90;;;3.03;;
64842;SDS011;51310;52.198;5.422;2023-03-01T10:48:24;7.60;;;3.25;;
64842;SDS011;51310;52.198;5.422;2023-03-01T10:53:29;10.25;;;3.30;;
64842;SDS011;51310;52.198;5.422;2023-03-01T10:56:10;6.53;;;2.90;;
64842;SDS011;51310;52.198;5.422;2023-03-01T10:58:40;4.70;;;2.97;;
64842;SDS011;51310;52.198;5.422;2023-03-01T11:01:35;5.80;;;2.80;;
64842;SDS011;51310;52.198;5.422;2023-03-01T11:06:57;5.85;;;2.60;;
64842;SDS011;51310;52.198;5.422;2023-03-01T11:09:26;5.43;;;2.53;;
64842;SDS011;51310;52.198;5.422;2023-03-01T11:12:02;5.15;;;2.65;;
64842;SDS011;51310;52.198;5.422;2023-03-01T11:14:37;6.80;;;3.10;;
64842;SDS011;51310;52.198;5.422;2023-03-01T11:17:13;4.57;;;2.80;;
64842;SDS011;51310;52.198;5.422;2023-03-01T11:20:00;4.95;;;2.47;;
64842;SDS011;51310;52.198;5.422;2023-03-01T11:22:35;5.10;;;2.90;;
64842;SDS011;51310;52.198;5.422;2023-03-01T11:25:02;4.27;;;2.47;;
64842;SDS011;51310;52.198;5.422;2023-03-01T11:27:30;5.45;;;2.80;;
64842;SDS011;51310;52.198;5.422;2023-03-01T11:30:09;5.25;;;2.58;;
64842;SDS011;51310;52.198;5.422;2023-03-01T11:38:40;5.30;;;2.90;;
64842;SDS011;51310;52.198;5.422;2023-03-01T11:41:07;8.57;;;2.50;;
64842;SDS011;51310;52.198;5.422;2023-03-01T11:49:33;4.82;;;2.63;;
64842;SDS011;51310;52.198;5.422;2023-03-01T11:57:32;6.55;;;3.03;;
64842;SDS011;51310;52.198;5.422;2023-03-01T12:00:32;5.57;;;2.90;;
64842;SDS011;51310;52.198;5.422;2023-03-01T12:21:17;7.13;;;3.65;;
64842;SDS011;51310;52.198;5.422;2023-03-01T12:39:28;6.00;;;3.27;;
64842;SDS011;51310;52.198;5.422;2023-03-01T12:51:07;5.32;;;2.97;;
64842;SDS011;51310;52.198;5.422;2023-03-01T12:53:40;5.45;;;2.85;;
64842;SDS011;51310;52.198;5.422;2023-03-01T12:56:13;4.75;;;2.63;;
64842;SDS011;51310;52.198;5.422;2023-03-01T13:01:49;5.65;;;2.97;;
64842;SDS011;51310;52.198;5.422;2023-03-01T13:07:38;5.43;;;3.15;;
64842;SDS011;51310;52.198;5.422;2023-03-01T13:10:34;5.40;;;3.20;;
64842;SDS011;51310;52.198;5.422;2023-03-01T13:13:18;6.32;;;2.85;;
64842;SDS011;51310;52.198;5.422;2023-03-01T13:15:52;7.03;;;2.97;;
64842;SDS011;51310;52.198;5.422;2023-03-01T13:28:49;6.72;;;3.20;;
64842;SDS011;51310;52.198;5.422;2023-03-01T13:38:59;4.93;;;3.00;;
64842;SDS011;51310;52.198;5.422;2023-03-01T13:46:46;6.53;;;3.13;;
64842;SDS011;51310;52.198;5.422;2023-03-01T13:49:15;5.45;;;2.97;;
64842;SDS011;51310;52.198;5.422;2023-03-01T13:51:46;4.78;;;2.70;;
64842;SDS011;51310;52.198;5.422;2023-03-01T13:54:14;7.07;;;3.28;;
64842;SDS011;51310;52.198;5.422;2023-03-01T13:56:50;7.72;;;3.10;;
64842;SDS011;51310;52.198;5.422;2023-03-01T13:59:17;5.50;;;3.20;;
64842;SDS011;51310;52.198;5.422;2023-03-01T14:02:19;7.50;;;3.35;;
64842;SDS011;51310;52.198;5.422;2023-03-01T14:04:38;4.30;;;2.95;;
64842;SDS011;51310;52.198;5.422;2023-03-01T14:07:12;4.85;;;2.90;;
64842;SDS011;51310;52.198;5.422;2023-03-01T14:09:44;4.20;;;2.70;;
64842;SDS011;51310;52.198;5.422;2023-03-01T14:12:19;5.03;;;3.15;;
64842;SDS011;51310;52.198;5.422;2023-03-01T14:15:01;6.75;;;3.30;;
64842;SDS011;51310;52.198;5.422;2023-03-01T14:20:30;7.78;;;3.15;;
64842;SDS011;51310;52.198;5.422;2023-03-01T14:23:03;6.00;;;3.20;;
64842;SDS011;51310;52.198;5.422;2023-03-01T14:25:37;5.65;;;2.90;;
64842;SDS011;51310;52.198;5.422;2023-03-01T14:28:14;4.78;;;3.55;;
64842;SDS011;51310;52.198;5.422;2023-03-01T14:30:53;6.03;;;3.38;;
64842;SDS011;51310;52.198;5.422;2023-03-01T14:33:31;6.63;;;3.05;;
64842;SDS011;51310;52.198;5.422;2023-03-01T14:38:38;6.35;;;3.22;;
64842;SDS011;51310;52.198;5.422;2023-03-01T14:41:10;5.47;;;3.45;;
64842;SDS011;51310;52.198;5.422;2023-03-01T14:43:43;7.13;;;2.85;;
64842;SDS011;51310;52.198;5.422;2023-03-01T14:46:21;5.77;;;3.70;;
64842;SDS011;51310;52.198;5.422;2023-03-01T14:49:16;8.30;;;3.75;;
64842;SDS011;51310;52.198;5.422;2023-03-01T14:54:35;9.60;;;3.45;;
64842;SDS011;51310;52.198;5.422;2023-03-01T14:57:24;6.18;;;3.00;;
64842;SDS011;51310;52.198;5.422;2023-03-01T14:59:52;6.07;;;3.40;;
64842;SDS011;51310;52.198;5.422;2023-03-01T15:02:23;5.90;;;3.25;;
64842;SDS011;51310;52.198;5.422;2023-03-01T15:04:57;6.50;;;2.75;;
64842;SDS011;51310;52.198;5.422;2023-03-01T15:07:31;4.45;;;3.00;;
64842;SDS011;51310;52.198;5.422;2023-03-01T15:10:03;7.20;;;3.50;;
64842;SDS011;51310;52.198;5.422;2023-03-01T15:12:34;5.80;;;3.60;;
64842;SDS011;51310;52.198;5.422;2023-03-01T15:15:30;6.65;;;3.22;;
64842;SDS011;51310;52.198;5.422;2023-03-01T15:18:16;6.93;;;3.13;;
64842;SDS011;51310;52.198;5.422;2023-03-01T15:20:54;5.35;;;3.45;;
64842;SDS011;51310;52.198;5.422;2023-03-01T15:23:29;4.68;;;3.10;;
64842;SDS011;51310;52.198;5.422;2023-03-01T15:25:55;6.37;;;3.20;;
64842;SDS011;51310;52.198;5.422;2023-03-01T15:28:37;12.07;;;3.55;;
64842;SDS011;51310;52.198;5.422;2023-03-01T15:31:18;5.72;;;3.10;;
64842;SDS011;51310;52.198;5.422;2023-03-01T15:33:48;8.25;;;3.47;;
64842;SDS011;51310;52.198;5.422;2023-03-01T15:36:36;5.45;;;3.65;;
64842;SDS011;51310;52.198;5.422;2023-03-01T15:41:58;9.77;;;4.60;;
64842;SDS011;51310;52.198;5.422;2023-03-01T15:44:35;8.90;;;3.22;;
64842;SDS011;51310;52.198;5.422;2023-03-01T15:47:05;6.78;;;3.53;;
64842;SDS011;51310;52.198;5.422;2023-03-01T15:49:50;4.82;;;3.20;;
64842;SDS011;51310;52.198;5.422;2023-03-01T15:52:22;5.95;;;3.47;;
64842;SDS011;51310;52.198;5.422;2023-03-01T15:54:59;8.18;;;3.70;;
64842;SDS011;51310;52.198;5.422;2023-03-01T15:57:31;5.43;;;3.55;;
64842;SDS011;51310;52.198;5.422;2023-03-01T15:59:56;6.57;;;3.83;;
64842;SDS011;51310;52.198;5.422;2023-03-01T16:02:23;6.00;;;3.63;;
64842;SDS011;51310;52.198;5.422;2023-03-01T16:04:49;6.73;;;3.33;;
64842;SDS011;51310;52.198;5.422;2023-03-01T16:07:16;7.10;;;4.18;;
64842;SDS011;51310;52.198;5.422;2023-03-01T16:09:42;7.30;;;3.72;;
64842;SDS011;51310;52.198;5.422;2023-03-01T16:12:14;6.90;;;3.83;;
64842;SDS011;51310;52.198;5.422;2023-03-01T16:14:41;5.95;;;3.60;;
64842;SDS011;51310;52.198;5.422;2023-03-01T16:17:08;5.30;;;3.58;;
64842;SDS011;51310;52.198;5.422;2023-03-01T16:19:35;8.07;;;4.60;;
64842;SDS011;51310;52.198;5.422;2023-03-01T16:22:02;5.80;;;3.22;;
64842;SDS011;51310;52.198;5.422;2023-03-01T16:24:28;11.38;;;3.88;;
64842;SDS011;51310;52.198;5.422;2023-03-01T16:26:54;6.72;;;3.25;;
64842;SDS011;51310;52.198;5.422;2023-03-01T16:29:20;6.82;;;3.50;;
64842;SDS011;51310;52.198;5.422;2023-03-01T16:31:46;5.97;;;3.30;;
64842;SDS011;51310;52.198;5.422;2023-03-01T16:34:12;8.13;;;3.83;;
64842;SDS011;51310;52.198;5.422;2023-03-01T16:36:38;8.13;;;3.55;;
64842;SDS011;51310;52.198;5.422;2023-03-01T16:39:04;9.53;;;4.13;;
64842;SDS011;51310;52.198;5.422;2023-03-01T16:41:31;6.30;;;4.03;;
64842;SDS011;51310;52.198;5.422;2023-03-01T16:43:56;7.83;;;4.23;;
64842;SDS011;51310;52.198;5.422;2023-03-01T16:46:23;6.60;;;4.07;;
64842;SDS011;51310;52.198;5.422;2023-03-01T16:48:53;7.53;;;4.30;;
64842;SDS011;51310;52.198;5.422;2023-03-01T16:51:21;8.13;;;3.70;;
64842;SDS011;51310;52.198;5.422;2023-03-01T16:53:48;7.80;;;4.43;;
64842;SDS011;51310;52.198;5.422;2023-03-01T16:56:16;10.60;;;4.05;;
64842;SDS011;51310;52.198;5.422;2023-03-01T16:58:43;8.20;;;3.95;;
64842;SDS011;51310;52.198;5.422;2023-03-01T17:01:10;7.55;;;3.58;;
64842;SDS011;51310;52.198;5.422;2023-03-01T17:03:40;7.43;;;4.20;;
64842;SDS011;51310;52.198;5.422;2023-03-01T17:06:10;7.85;;;3.92;;
64842;SDS011;51310;52.198;5.422;2023-03-01T17:08:40;7.30;;;3.92;;
64842;SDS011;51310;52.198;5.422;2023-03-01T17:11:07;9.68;;;4.43;;
64842;SDS011;51310;52.198;5.422;2023-03-01T17:13:36;7.03;;;4.22;;
64842;SDS011;51310;52.198;5.422;2023-03-01T17:16:07;5.90;;;3.65;;
64842;SDS011;51310;52.198;5.422;2023-03-01T17:18:36;8.18;;;3.97;;
64842;SDS011;51310;52.198;5.422;2023-03-01T17:21:02;8.50;;;4.85;;
64842;SDS011;51310;52.198;5.422;2023-03-01T17:23:30;9.63;;;4.30;;